Time;durP1;ratioP1;P1;durP2;ratioP2;P2;SDS_P1;SDS_P2;PMS_P1;PMS_P2;Temp;Humidity;BMP_temperature;BMP_pressure;BME280_temperature;BME280_humidity;BME280_pressure;Samples;Min_cycle;Max_cycle;Signal;HPM_P1;HPM_P2
2023/03/04 00:02:12;;;;;;;;;59.00;47.25;;;;;3.04;67.89;102032.44;5054553;28;45630;-73
2023/03/04 00:04:37;;;;;;;;;62.50;50.00;;;;;3.94;67.57;102174.03;5057881;28;45324;-76
2023/03/04 00:07:03;;;;;;;;;53.50;41.50;;;;;3.92;68.15;102180.28;5055409;28;45356;-75
2023/03/04 00:09:28;;;;;;;;;60.25;43.50;;;;;4.06;67.96;102188.44;5051472;28;45512;-72
2023/03/04 00:11:53;;;;;;;;;59.75;46.00;;;;;3.91;67.28;102142.59;5058177;28;45509;-73
2023/03/04 00:14:19;;;;;;;;;61.25;49.50;;;;;4.16;66.90;102195.00;5056563;28;45992;-73
2023/03/04 00:16:44;;;;;;;;;62.75;46.50;;;;;3.79;67.44;102140.47;5058436;28;45429;-72
2023/03/04 00:19:10;;;;;;;;;65.25;48.75;;;;;4.03;67.51;102178.06;5055024;28;45259;-75
2023/03/04 00:21:35;;;;;;;;;56.50;43.00;;;;;3.92;67.65;102160.09;5051218;28;45450;-76
2023/03/04 00:24:00;;;;;;;;;58.00;46.50;;;;;4.16;67.52;102187.09;5047422;28;45763;-76
2023/03/04 00:26:26;;;;;;;;;62.25;48.00;;;;;3.97;67.98;102179.16;5054792;28;45428;-72
2023/03/04 00:28:51;;;;;;;;;61.25;47.75;;;;;3.87;67.85;102180.47;5051155;28;55104;-74
2023/03/04 00:31:17;;;;;;;;;55.00;45.75;;;;;3.94;67.75;102179.28;5049114;28;46446;-73
2023/03/04 00:33:43;;;;;;;;;69.00;54.75;;;;;3.81;68.23;102186.03;5056505;28;45534;-74
2023/03/04 00:36:09;;;;;;;;;57.00;45.75;;;;;3.70;67.94;102161.94;5057554;28;45245;-74
2023/03/04 00:38:34;;;;;;;;;60.50;46.75;;;;;3.51;67.81;102114.53;5057794;28;45362;-72
2023/03/04 00:41:00;;;;;;;;;65.00;48.50;;;;;3.57;67.71;102116.03;5055865;28;48527;-73
2023/03/04 00:43:25;;;;;;;;;57.75;47.25;;;;;4.04;67.30;102192.06;5053819;28;46253;-71
2023/03/04 00:45:50;;;;;;;;;54.00;42.25;;;;;4.04;68.03;102189.44;5045937;28;51232;-72
2023/03/04 00:48:16;;;;;;;;;61.00;49.00;;;;;4.06;67.33;102211.28;5038418;28;45496;-73
2023/03/04 00:50:43;;;;;;;;;65.50;52.50;;;;;3.87;67.69;102175.22;5046357;28;46239;-73
2023/03/04 00:53:09;;;;;;;;;67.50;51.50;;;;;3.91;67.22;102184.69;5037851;28;45558;-73
2023/03/04 00:55:34;;;;;;;;;59.25;48.00;;;;;4.05;67.29;102201.66;5047424;28;45453;-70
2023/03/04 00:58:00;;;;;;;;;59.00;48.00;;;;;4.06;67.31;102209.50;5056465;28;45535;-75
2023/03/04 01:00:25;;;;;;;;;68.25;52.25;;;;;2.80;67.92;101992.25;5050697;28;45620;-72
2023/03/04 01:02:50;;;;;;;;;68.75;52.25;;;;;4.06;67.47;102211.28;5051529;28;45474;-72
2023/03/04 01:05:16;;;;;;;;;61.75;47.50;;;;;3.55;67.10;102137.13;5056843;28;50274;-74
2023/03/04 01:07:42;;;;;;;;;63.00;50.00;;;;;2.84;68.29;102024.53;5054222;28;45360;-71
2023/03/04 01:10:11;;;;;;;;;66.25;47.75;;;;;4.05;67.68;102217.47;5050403;28;45832;-73
2023/03/04 01:12:38;;;;;;;;;61.25;50.00;;;;;4.14;67.53;102209.16;5056659;28;45525;-73
2023/03/04 01:15:05;;;;;;;;;66.25;52.00;;;;;3.85;67.59;102168.31;5047477;28;45468;-71
2023/03/04 01:17:30;;;;;;;;;57.75;47.75;;;;;4.07;66.96;102191.94;5055702;28;45419;-73
2023/03/04 01:19:55;;;;;;;;;62.25;48.00;;;;;3.63;67.93;102115.78;5056925;28;45553;-72
2023/03/04 01:22:21;;;;;;;;;64.75;51.25;;;;;4.09;67.38;102206.72;5049178;28;45501;-73
2023/03/04 01:24:46;;;;;;;;;68.25;53.50;;;;;3.65;67.65;102134.97;5049199;28;45362;-72
2023/03/04 01:27:11;;;;;;;;;62.50;50.00;;;;;4.00;67.24;102183.41;5048214;28;45373;-72
2023/03/04 01:29:37;;;;;;;;;61.50;47.75;;;;;4.16;67.08;102204.66;5068975;28;47531;-75
2023/03/04 01:32:03;;;;;;;;;61.50;45.75;;;;;3.97;67.42;102181.78;5059944;28;46367;-72
2023/03/04 01:34:28;;;;;;;;;62.25;48.25;;;;;3.97;67.26;102173.03;5044217;28;45222;-72
2023/03/04 01:36:54;;;;;;;;;68.50;51.75;;;;;4.09;67.19;102208.50;5040312;28;45292;-74
2023/03/04 01:39:19;;;;;;;;;68.50;52.00;;;;;3.86;66.93;102148.97;5055461;28;45251;-72
2023/03/04 01:41:45;;;;;;;;;57.00;45.25;;;;;4.12;67.10;102192.56;5056642;28;45411;-75
2023/03/04 01:44:11;;;;;;;;;58.75;47.25;;;;;3.09;67.57;102013.84;5054814;28;45571;-73
2023/03/04 01:46:37;;;;;;;;;65.25;51.50;;;;;3.84;67.47;102151.69;5040255;28;45542;-71
2023/03/04 01:49:03;;;;;;;;;68.75;52.25;;;;;3.23;67.62;102048.28;5038360;28;46501;-73
2023/03/04 01:51:28;;;;;;;;;54.75;46.00;;;;;3.88;67.33;102163.78;5053416;28;45508;-72
2023/03/04 01:53:55;;;;;;;;;60.75;48.00;;;;;3.98;67.19;102196.66;5056361;28;45407;-74
2023/03/04 01:56:36;;;;;;;;;58.25;47.00;;;;;3.66;68.01;102128.78;5052330;28;45844;-73
2023/03/04 01:59:10;;;;;;;;;64.75;51.25;;;;;3.96;67.93;102173.97;5036657;28;49091;-72
2023/03/04 02:01:37;;;;;;;;;69.00;52.50;;;;;3.90;68.62;102188.25;5046412;28;45478;-75
2023/03/04 02:04:03;;;;;;;;;62.00;50.25;;;;;3.00;67.29;102015.06;5048496;28;45301;-72
2023/03/04 02:06:28;;;;;;;;;64.50;49.75;;;;;3.85;67.46;102158.66;5056648;28;45467;-72
2023/03/04 02:08:54;;;;;;;;;63.25;47.50;;;;;3.95;68.10;102170.47;5055008;28;46791;-71
2023/03/04 02:11:19;;;;;;;;;68.00;53.25;;;;;3.97;67.21;102158.09;5040415;28;45345;-76
2023/03/04 02:13:45;;;;;;;;;62.50;48.50;;;;;3.98;67.68;102167.69;5043021;28;45563;-72
2023/03/04 02:16:10;;;;;;;;;60.50;48.75;;;;;3.92;67.82;102162.72;5036631;28;45463;-73
2023/03/04 02:18:35;;;;;;;;;78.00;55.00;;;;;4.04;67.86;102169.22;5036871;28;46116;-72
2023/03/04 02:21:26;;;;;;;;;63.50;48.75;;;;;4.03;67.44;102172.78;5045523;28;45410;-72
2023/03/04 02:24:14;;;;;;;;;64.75;50.25;;;;;3.91;67.57;102174.16;5044297;28;45311;-72
2023/03/04 02:26:42;;;;;;;;;64.50;49.50;;;;;3.92;68.11;102177.66;5042366;28;46433;-72
2023/03/04 02:29:09;;;;;;;;;64.00;50.75;;;;;3.59;68.17;102119.44;5059664;28;45607;-72
2023/03/04 02:31:50;;;;;;;;;60.50;48.00;;;;;3.55;67.42;102120.50;5055789;28;45314;-73
2023/03/04 02:34:22;;;;;;;;;59.25;48.00;;;;;3.92;67.45;102181.13;5040008;28;45668;-74
2023/03/04 02:36:49;;;;;;;;;60.75;47.00;;;;;3.98;67.36;102182.63;5044383;28;45490;-74
2023/03/04 02:39:31;;;;;;;;;58.50;46.75;;;;;3.93;67.07;102181.97;5057559;28;45510;-73
2023/03/04 02:41:56;;;;;;;;;57.25;42.50;;;;;4.01;67.48;102174.63;5045248;28;45558;-73
2023/03/04 02:44:30;;;;;;;;;64.50;50.25;;;;;3.82;67.61;102142.16;5059084;28;45247;-73
2023/03/04 02:46:56;;;;;;;;;62.75;48.75;;;;;3.98;67.71;102172.97;5044458;28;45206;-71
2023/03/04 02:49:24;;;;;;;;;58.25;47.25;;;;;4.00;67.61;102165.00;5051314;28;47443;-73
2023/03/04 02:51:52;;;;;;;;;61.75;49.25;;;;;3.97;67.10;102163.34;5039414;28;45315;-71
2023/03/04 02:54:21;;;;;;;;;48.00;38.50;;;;;3.92;68.31;102159.22;5040025;28;45365;-71
2023/03/04 02:56:49;;;;;;;;;68.00;50.00;;;;;3.57;68.00;102121.28;5044669;28;45486;-71
2023/03/04 02:59:14;;;;;;;;;68.75;52.00;;;;;3.80;67.92;102165.88;5044600;28;45850;-72
2023/03/04 03:01:40;;;;;;;;;62.25;48.25;;;;;3.89;68.35;102154.97;5051266;28;45449;-73
2023/03/04 03:04:05;;;;;;;;;63.50;51.25;;;;;3.89;68.39;102169.88;5055104;28;45464;-70
2023/03/04 03:06:31;;;;;;;;;56.75;46.25;;;;;3.01;67.47;102006.28;5049456;28;45428;-71
2023/03/04 03:08:56;;;;;;;;;63.25;49.50;;;;;3.61;68.05;102115.00;5048133;28;50592;-72
2023/03/04 03:11:21;;;;;;;;;66.50;48.75;;;;;3.50;68.03;102101.44;5044091;28;45332;-71
2023/03/04 03:13:47;;;;;;;;;60.00;47.75;;;;;3.76;68.44;102148.50;5048207;28;45494;-70
2023/03/04 03:16:12;;;;;;;;;67.75;51.00;;;;;2.88;68.41;102012.97;5039953;28;45538;-72
2023/03/04 03:18:37;;;;;;;;;61.50;45.50;;;;;3.45;68.67;102100.78;5052999;28;47510;-74
2023/03/04 03:21:03;;;;;;;;;71.50;52.75;;;;;3.72;68.42;102157.47;5054448;28;45514;-71
2023/03/04 03:23:28;;;;;;;;;63.25;49.75;;;;;3.72;68.75;102146.94;5046359;28;45603;-70
2023/03/04 03:25:53;;;;;;;;;66.25;49.75;;;;;3.60;68.85;102147.44;5056219;28;45292;-72
2023/03/04 03:28:19;;;;;;;;;65.50;51.25;;;;;3.66;68.37;102142.81;5050097;28;45728;-71
2023/03/04 03:30:44;;;;;;;;;68.50;53.25;;;;;3.47;68.58;102109.47;5049631;28;45563;-73
2023/03/04 03:33:09;;;;;;;;;62.75;49.00;;;;;3.64;68.50;102133.28;5050431;28;45527;-72
2023/03/04 03:35:35;;;;;;;;;56.75;48.50;;;;;3.58;68.92;102136.13;5053776;28;45566;-73
2023/03/04 03:38:00;;;;;;;;;62.25;48.75;;;;;3.28;68.89;102089.22;5037485;28;45969;-72
2023/03/04 03:40:26;;;;;;;;;66.25;51.00;;;;;3.47;68.18;102106.84;5050252;28;45242;-71
2023/03/04 03:42:51;;;;;;;;;68.75;52.50;;;;;3.70;69.20;102138.25;5052119;28;45885;-73
2023/03/04 03:45:16;;;;;;;;;65.00;49.50;;;;;3.22;68.72;102091.25;5047897;28;45249;-71
2023/03/04 03:47:42;;;;;;;;;65.50;47.00;;;;;3.43;69.02;102107.88;5044332;28;46337;-72
2023/03/04 03:50:08;;;;;;;;;71.75;54.25;;;;;3.47;68.80;102144.50;5047132;28;45325;-75
2023/03/04 03:52:33;;;;;;;;;66.00;51.25;;;;;3.50;68.92;102135.63;5050161;28;45557;-73
2023/03/04 03:55:00;;;;;;;;;68.00;53.25;;;;;2.41;68.11;101965.88;5049996;28;45318;-73
2023/03/04 03:57:26;;;;;;;;;68.50;52.75;;;;;2.72;68.92;102012.72;5056786;28;48360;-73
2023/03/04 03:59:51;;;;;;;;;73.50;56.00;;;;;0.77;68.71;101692.75;5052964;28;45780;-71
2023/03/04 04:02:17;;;;;;;;;63.75;51.00;;;;;3.22;69.25;102126.25;5054808;28;45362;-73
2023/03/04 04:04:42;;;;;;;;;65.00;52.00;;;;;3.46;69.31;102162.97;5049471;28;45578;-73
2023/03/04 04:07:07;;;;;;;;;64.50;48.50;;;;;3.56;68.58;102165.13;5058206;28;45924;-72
2023/03/04 04:09:33;;;;;;;;;63.75;49.00;;;;;3.62;68.14;102164.03;5041579;28;46426;-72
2023/03/04 04:11:58;;;;;;;;;63.25;49.00;;;;;3.36;67.85;102123.03;5045819;28;45415;-72
2023/03/04 04:14:23;;;;;;;;;57.75;46.25;;;;;3.27;68.34;102107.66;5046929;28;45550;-72
2023/03/04 04:16:49;;;;;;;;;67.25;50.50;;;;;3.27;68.26;102092.75;5040186;28;48419;-72
2023/03/04 04:19:19;;;;;;;;;66.25;47.50;;;;;3.36;67.81;102087.09;5045332;28;45186;-72
2023/03/04 04:21:45;;;;;;;;;62.75;47.00;;;;;3.70;67.05;102155.81;5049535;28;45462;-71
2023/03/04 04:24:10;;;;;;;;;64.75;49.50;;;;;3.64;67.46;102154.31;5051758;28;45552;-73
2023/03/04 04:26:36;;;;;;;;;57.25;45.50;;;;;2.34;67.17;101940.78;5048888;28;47464;-73
2023/03/04 04:29:01;;;;;;;;;63.75;46.75;;;;;3.10;67.71;102071.56;5057187;28;45466;-75
2023/03/04 04:31:26;;;;;;;;;61.50;47.50;;;;;3.07;67.68;102076.97;5049344;28;45309;-70
2023/03/04 04:33:52;;;;;;;;;52.00;42.75;;;;;2.68;67.74;102027.75;5042331;28;50628;-73
2023/03/04 04:36:17;;;;;;;;;64.25;50.00;;;;;3.41;68.11;102157.91;5054203;28;46274;-75
2023/03/04 04:38:43;;;;;;;;;65.25;48.75;;;;;3.50;68.03;102165.41;5056308;28;51480;-72
2023/03/04 04:41:19;;;;;;;;;63.50;50.50;;;;;3.29;68.29;102148.75;5050417;28;45690;-73
2023/03/04 04:43:44;;;;;;;;;61.00;47.00;;;;;2.39;67.95;101986.91;5041006;28;45586;-73
2023/03/04 04:46:09;;;;;;;;;58.25;43.00;;;;;3.36;67.87;102159.84;5053703;28;45688;-72
2023/03/04 04:48:35;;;;;;;;;53.50;43.50;;;;;3.42;68.29;102179.78;5050590;28;45601;-73
2023/03/04 04:51:00;;;;;;;;;59.75;46.75;;;;;3.26;68.11;102142.75;5051874;28;45349;-77
2023/03/04 04:53:25;;;;;;;;;57.75;48.00;;;;;3.39;67.14;102172.00;5048385;28;45710;-72
2023/03/04 04:55:50;;;;;;;;;58.75;46.50;;;;;2.36;68.17;102007.19;5040807;28;50481;-75
2023/03/04 04:58:16;;;;;;;;;54.75;42.50;;;;;3.30;67.90;102170.63;5046003;28;45469;-72
2023/03/04 05:00:41;;;;;;;;;62.25;47.50;;;;;3.28;68.36;102178.56;5042739;28;45396;-74
2023/03/04 05:03:06;;;;;;;;;53.75;42.00;;;;;3.22;68.36;102178.81;5056927;28;45139;-71
2023/03/04 05:05:32;;;;;;;;;57.75;46.00;;;;;3.28;67.50;102175.09;5055919;28;48069;-72
2023/03/04 05:07:57;;;;;;;;;63.75;47.00;;;;;2.57;67.94;102060.59;5049733;28;45486;-74
2023/03/04 05:10:22;;;;;;;;;60.75;45.25;;;;;3.07;67.86;102153.16;5048181;28;45205;-73
2023/03/04 05:12:48;;;;;;;;;57.00;45.75;;;;;2.27;68.59;102029.41;5050646;28;54938;-72
2023/03/04 05:15:14;;;;;;;;;62.50;49.00;;;;;3.24;67.75;102187.50;5054284;28;46389;-72
2023/03/04 05:17:40;;;;;;;;;56.50;42.75;;;;;3.26;68.17;102187.44;5041153;28;45387;-73
2023/03/04 05:20:06;;;;;;;;;57.25;46.00;;;;;3.34;68.14;102212.47;5057092;28;45383;-70
2023/03/04 05:22:31;;;;;;;;;54.00;42.50;;;;;3.10;67.33;102137.25;5049076;28;45253;-74
2023/03/04 05:24:57;;;;;;;;;59.75;46.75;;;;;3.47;67.03;102189.19;5050942;28;46274;-73
2023/03/04 05:27:22;;;;;;;;;63.50;50.25;;;;;2.51;67.11;102034.59;5054192;28;45423;-72
2023/03/04 05:29:48;;;;;;;;;59.00;47.25;;;;;2.87;67.57;102108.44;5055444;28;45481;-73
2023/03/04 05:32:13;;;;;;;;;56.75;46.50;;;;;2.84;66.88;102098.06;5056953;28;45368;-73
2023/03/04 05:34:38;;;;;;;;;53.50;41.25;;;;;3.45;67.19;102216.47;5055376;28;47286;-72
2023/03/04 05:37:04;;;;;;;;;54.25;43.25;;;;;3.08;66.46;102133.84;5047934;28;45477;-74
2023/03/04 05:39:29;;;;;;;;;57.25;44.00;;;;;3.14;66.46;102149.34;5040136;28;45218;-71
2023/03/04 05:41:54;;;;;;;;;60.25;48.25;;;;;3.39;66.60;102200.91;5044863;28;45469;-71
2023/03/04 05:44:19;;;;;;;;;54.50;40.25;;;;;3.33;66.54;102187.13;5051173;28;59735;-72
2023/03/04 05:46:45;;;;;;;;;57.25;45.25;;;;;2.81;65.86;102093.78;5048466;28;45193;-73
2023/03/04 05:49:10;;;;;;;;;61.25;45.75;;;;;3.01;66.37;102137.66;5051501;28;45546;-71
2023/03/04 05:51:36;;;;;;;;;41.50;36.00;;;;;3.28;66.35;102181.19;5053468;28;45605;-73
2023/03/04 05:54:01;;;;;;;;;65.75;53.25;;;;;3.30;66.22;102200.38;5044900;28;47139;-71
2023/03/04 05:56:28;;;;;;;;;64.25;49.25;;;;;3.28;67.13;102204.00;5050486;28;45883;-73
2023/03/04 05:58:58;;;;;;;;;68.75;50.75;;;;;2.40;66.67;102033.28;5064098;28;45489;-73
2023/03/04 06:01:24;;;;;;;;;58.75;47.00;;;;;3.35;66.53;102206.31;5051183;28;45631;-74
2023/03/04 06:03:49;;;;;;;;;60.00;44.50;;;;;2.90;66.35;102124.06;5044858;28;46174;-74
2023/03/04 06:06:15;;;;;;;;;60.00;47.25;;;;;2.49;66.23;102033.81;5051068;28;45470;-73
2023/03/04 06:08:41;;;;;;;;;56.50;44.75;;;;;3.48;65.88;102221.59;5045431;28;45427;-74
2023/03/04 06:11:06;;;;;;;;;60.75;48.25;;;;;3.47;66.64;102204.13;5039786;28;45427;-76
2023/03/04 06:13:32;;;;;;;;;57.75;47.25;;;;;3.42;65.71;102200.81;5048278;28;46585;-71
2023/03/04 06:15:59;;;;;;;;;62.25;47.00;;;;;3.39;66.30;102227.22;5047954;28;45471;-71
2023/03/04 06:18:25;;;;;;;;;55.25;44.00;;;;;3.36;66.31;102220.31;5056252;28;45319;-72
2023/03/04 06:20:55;;;;;;;;;60.50;48.00;;;;;3.45;65.87;102208.59;5047609;28;45395;-72
2023/03/04 06:23:21;;;;;;;;;56.25;46.50;;;;;3.00;66.27;102133.28;5047625;28;46310;-73
2023/03/04 06:25:51;;;;;;;;;69.75;49.75;;;;;2.61;65.90;102064.84;5054555;28;45371;-74
2023/03/04 06:28:16;;;;;;;;;55.75;44.75;;;;;3.47;65.57;102217.25;5047254;28;45269;-72
2023/03/04 06:30:41;;;;;;;;;64.25;46.75;;;;;3.33;66.21;102213.41;5051180;28;45314;-72
2023/03/04 06:33:06;;;;;;;;;54.25;45.25;;;;;2.86;65.88;102149.63;5044398;28;45799;-75
2023/03/04 06:35:32;;;;;;;;;56.75;46.00;;;;;2.68;65.91;102140.69;5047545;28;46710;-74
2023/03/04 06:37:57;;;;;;;;;59.75;47.50;;;;;3.11;66.49;102212.56;5052088;28;45721;-72
2023/03/04 06:40:22;;;;;;;;;54.75;44.25;;;;;3.25;66.61;102228.63;5054350;28;45543;-73
2023/03/04 06:42:48;;;;;;;;;58.25;46.75;;;;;3.19;66.25;102218.34;5054595;28;48594;-73
2023/03/04 06:45:13;;;;;;;;;47.75;42.75;;;;;3.02;66.19;102191.91;5039741;28;45479;-72
2023/03/04 06:47:39;;;;;;;;;54.25;45.75;;;;;3.29;66.05;102232.84;5050985;28;45331;-72
2023/03/04 06:50:04;;;;;;;;;59.00;45.50;;;;;2.89;66.09;102159.13;5044465;28;45399;-72
2023/03/04 06:52:30;;;;;;;;;56.50;46.25;;;;;1.19;65.46;101887.53;5051962;28;47378;-72
2023/03/04 06:54:55;;;;;;;;;59.75;43.75;;;;;2.97;65.74;102162.31;5046046;28;45608;-75
2023/03/04 06:57:20;;;;;;;;;56.75;44.50;;;;;2.49;66.01;102076.66;5047605;28;45482;-73
2023/03/04 06:59:46;;;;;;;;;58.50;40.25;;;;;3.40;65.31;102239.44;5054419;28;45601;-73
2023/03/04 07:02:11;;;;;;;;;55.50;45.75;;;;;3.59;64.98;102230.75;5046077;28;45384;-72
2023/03/04 07:04:37;;;;;;;;;58.00;46.00;;;;;3.76;64.38;102259.00;5055605;28;45493;-74
2023/03/04 07:07:02;;;;;;;;;53.25;40.75;;;;;3.69;64.62;102238.28;5055268;28;45316;-75
2023/03/04 07:09:28;;;;;;;;;53.75;42.75;;;;;3.30;64.40;102168.84;5046885;28;45615;-74
2023/03/04 07:11:53;;;;;;;;;54.25;39.75;;;;;2.82;64.92;102090.25;5046563;28;46209;-72
2023/03/04 07:14:18;;;;;;;;;57.00;42.00;;;;;3.88;64.21;102247.97;5056084;28;45584;-74
2023/03/04 07:16:43;;;;;;;;;54.00;42.00;;;;;3.68;64.39;102219.00;5043043;28;45523;-73
2023/03/04 07:19:09;;;;;;;;;55.50;41.00;;;;;4.11;63.83;102254.88;5051627;28;45430;-72
2023/03/04 07:21:34;;;;;;;;;53.25;45.50;;;;;4.11;62.87;102264.56;5057858;28;47865;-73
2023/03/04 07:24:00;;;;;;;;;57.50;43.75;;;;;4.15;63.43;102256.47;5045952;28;45452;-72
2023/03/04 07:26:26;;;;;;;;;56.00;43.25;;;;;3.37;62.83;102111.59;5053510;28;45627;-72
2023/03/04 07:28:53;;;;;;;;;58.00;45.50;;;;;4.33;62.46;102257.44;5048980;28;45233;-74
2023/03/04 07:31:36;;;;;;;;;57.50;46.25;;;;;3.85;61.74;102173.59;5040072;28;46379;-75
2023/03/04 07:34:04;;;;;;;;;56.50;43.25;;;;;4.33;62.50;102249.53;5055321;28;45615;-74
2023/03/04 07:36:31;;;;;;;;;47.25;38.00;;;;;4.49;61.50;102282.19;5053751;28;45192;-72
2023/03/04 07:38:56;;;;;;;;;61.25;45.00;;;;;4.49;61.66;102242.69;5049870;28;45482;-71
2023/03/04 07:41:24;;;;;;;;;57.50;45.50;;;;;4.49;60.81;102203.19;5058208;28;45919;-74
2023/03/04 07:43:50;;;;;;;;;51.75;42.00;;;;;5.16;60.59;102258.03;5057225;28;45240;-74
2023/03/04 07:46:16;;;;;;;;;58.00;42.50;;;;;5.33;59.43;102244.06;5053292;28;45676;-73
2023/03/04 07:48:41;;;;;;;;;41.33;36.67;;;;;5.63;58.53;102225.91;5044434;28;45588;-74
2023/03/04 07:51:13;;;;;;;;;54.50;43.50;;;;;5.33;57.28;102116.63;5056136;28;46534;-76
2023/03/04 07:53:41;;;;;;;;;55.50;43.00;;;;;6.45;55.99;102233.19;5046880;28;46753;-73
2023/03/04 07:56:10;;;;;;;;;57.00;45.75;;;;;6.88;55.25;102277.53;5047528;28;45389;-72
2023/03/04 07:58:35;;;;;;;;;48.33;39.67;;;;;6.41;54.52;102150.59;5058118;28;45612;-75
2023/03/04 08:01:07;;;;;;;;;45.33;36.33;;;;;7.14;53.75;102240.88;5054698;28;48282;-74
2023/03/04 08:03:33;;;;;;;;;53.67;42.33;;;;;7.08;52.76;102206.84;5055439;28;46641;-74
2023/03/04 08:05:58;;;;;;;;;55.50;45.25;;;;;5.72;53.39;102021.38;5050353;28;56931;-74
2023/03/04 08:08:23;;;;;;;;;54.33;43.00;;;;;6.61;53.28;102205.00;5055705;28;45442;-72
2023/03/04 08:10:49;;;;;;;;;54.75;42.75;;;;;6.68;53.63;102243.38;5052800;28;45962;-73
2023/03/04 08:13:14;;;;;;;;;55.00;43.50;;;;;6.62;53.80;102276.28;5058834;28;45482;-76
2023/03/04 08:15:41;;;;;;;;;54.33;41.67;;;;;5.76;55.55;102174.19;5049687;27;45392;-75
2023/03/04 08:18:07;;;;;;;;;58.00;45.67;;;;;6.27;55.43;102291.31;5058925;28;45298;-72
2023/03/04 08:20:33;;;;;;;;;50.00;39.00;;;;;5.71;56.49;102223.72;5055746;28;47931;-76
2023/03/04 08:22:58;;;;;;;;;56.00;42.25;;;;;5.92;56.22;102264.03;5050459;28;45281;-74
2023/03/04 08:25:23;;;;;;;;;49.75;39.25;;;;;5.67;56.38;102227.44;5056789;28;45637;-75
2023/03/04 08:27:49;;;;;;;;;47.75;39.50;;;;;5.88;56.45;102307.34;5058997;28;45547;-73
2023/03/04 08:30:14;;;;;;;;;46.33;38.00;;;;;5.86;56.94;102305.72;5055733;28;45445;-75
2023/03/04 08:32:40;;;;;;;;;50.00;41.50;;;;;5.70;57.34;102268.66;5056946;28;45474;-74
2023/03/04 08:35:05;;;;;;;;;47.67;38.67;;;;;6.00;56.59;102313.81;5046754;28;45443;-74
2023/03/04 08:37:31;;;;;;;;;48.00;37.00;;;;;6.00;56.53;102312.03;5055359;28;45423;-75
2023/03/04 08:39:56;;;;;;;;;56.25;45.25;;;;;5.77;57.30;102270.91;5047616;28;46856;-75
2023/03/04 08:42:23;;;;;;;;;51.67;41.67;;;;;5.48;56.70;102216.09;5048201;28;46836;-74
2023/03/04 08:44:48;;;;;;;;;47.00;40.00;;;;;5.88;56.22;102266.88;5043805;28;45431;-76
2023/03/04 08:47:13;;;;;;;;;47.00;39.67;;;;;5.92;55.93;102284.31;5046056;28;45392;-73
2023/03/04 08:49:39;;;;;;;;;51.33;40.00;;;;;5.94;56.22;102272.75;5051081;28;47504;-74
2023/03/04 08:52:05;;;;;;;;;49.00;39.00;;;;;6.18;55.73;102275.06;5046784;28;45396;-75
2023/03/04 08:54:30;;;;;;;;;46.00;37.67;;;;;5.80;55.51;102190.72;5056234;28;45619;-74
2023/03/04 08:56:55;;;;;;;;;44.33;36.67;;;;;6.64;55.10;102306.13;5047630;28;45315;-74
2023/03/04 08:59:21;;;;;;;;;49.33;40.00;;;;;6.14;55.20;102245.31;5056109;28;47592;-74
2023/03/04 09:01:46;;;;;;;;;42.00;33.33;;;;;6.39;54.85;102314.44;5057195;28;45445;-74
2023/03/04 09:04:11;;;;;;;;;35.33;34.33;;;;;6.19;55.77;102298.75;5051734;28;45550;-74
2023/03/04 09:06:37;;;;;;;;;44.00;37.33;;;;;6.20;56.47;102304.88;5050374;28;45500;-73
2023/03/04 09:09:02;;;;;;;;;46.00;37.00;;;;;5.84;56.17;102265.34;5047308;28;47520;-78
2023/03/04 09:11:28;;;;;;;;;42.33;36.33;;;;;5.73;56.07;102258.78;5055057;28;46048;-75
2023/03/04 09:13:53;;;;;;;;;45.67;38.00;;;;;5.72;56.11;102279.97;5058749;28;45493;-74
2023/03/04 09:16:19;;;;;;;;;38.67;32.67;;;;;6.02;55.90;102320.75;5055868;28;45293;-76
2023/03/04 09:18:44;;;;;;;;;33.67;30.00;;;;;6.11;55.57;102311.50;5045464;28;46633;-75
2023/03/04 09:21:10;;;;;;;;;42.33;34.00;;;;;5.92;56.29;102289.59;5052308;28;46050;-75
2023/03/04 09:23:36;;;;;;;;;42.33;35.33;;;;;6.21;56.31;102322.47;5054232;28;45292;-75
2023/03/04 09:26:23;;;;;;;;;37.00;33.33;;;;;5.95;56.01;102276.22;5053484;28;45514;-73
2023/03/04 09:28:50;;;;;;;;;35.00;29.00;;;;;6.18;56.10;102299.69;5049824;28;46761;-75
2023/03/04 09:31:16;;;;;;;;;36.33;32.33;;;;;6.21;56.12;102323.31;5040664;28;45423;-72
2023/03/04 09:33:42;;;;;;;;;39.67;34.00;;;;;6.22;56.30;102314.47;5065556;28;46386;-77
2023/03/04 09:36:12;;;;;;;;;37.67;32.33;;;;;6.17;56.32;102308.53;5056859;28;45510;-77
2023/03/04 09:38:39;;;;;;;;;31.33;27.67;;;;;5.42;56.06;102164.50;5039312;28;46050;-80
2023/03/04 09:41:12;;;;;;;;;34.33;29.67;;;;;6.29;56.01;102315.84;5060741;28;45344;-78
2023/03/04 09:43:38;;;;;;;;;38.00;32.67;;;;;6.07;55.81;102313.44;5055923;28;45316;-75
2023/03/04 09:46:10;;;;;;;;;46.33;35.67;;;;;5.79;56.89;102269.03;5045081;28;45856;-79
2023/03/04 09:48:44;;;;;;;;;38.33;33.33;;;;;5.87;56.07;102265.19;5047641;28;46152;-75
2023/03/04 09:51:20;;;;;;;;;40.33;34.00;;;;;5.35;55.76;102159.59;5056560;28;45264;-75
2023/03/04 09:54:07;;;;;;;;;37.33;32.67;;;;;5.93;56.21;102249.06;5058896;28;45600;-76
2023/03/04 09:56:41;;;;;;;;;36.00;34.00;;;;;6.33;56.34;102309.47;5045705;28;46806;-72
2023/03/04 09:59:22;;;;;;;;;34.00;30.67;;;;;5.95;56.10;102231.34;5053261;28;45980;-72
2023/03/04 10:01:57;;;;;;;;;40.00;34.33;;;;;6.36;55.66;102296.09;5045097;28;45415;-70
2023/03/04 10:04:31;;;;;;;;;36.00;33.67;;;;;6.40;55.76;102326.72;5041566;28;45661;-72
2023/03/04 10:06:57;;;;;;;;;43.67;37.00;;;;;6.23;56.85;102323.25;5047353;28;46517;-71
2023/03/04 10:09:50;;;;;;;;;34.67;33.67;;;;;6.27;56.89;102330.94;5053364;28;45441;-70
2023/03/04 10:12:20;;;;;;;;;36.67;33.00;;;;;6.29;56.73;102307.94;5054014;28;45427;-72
2023/03/04 10:14:54;;;;;;;;;41.67;35.33;;;;;6.52;55.90;102332.31;5054836;28;45510;-73
2023/03/04 10:17:28;;;;;;;;;40.67;33.33;;;;;6.53;55.35;102312.88;5039324;28;45514;-70
2023/03/04 10:19:58;;;;;;;;;49.67;41.67;;;;;6.02;55.67;102253.91;5053681;28;45588;-70
2023/03/04 10:22:43;;;;;;;;;31.00;28.67;;;;;5.59;56.22;102207.63;5052947;28;45456;-70
2023/03/04 10:25:27;;;;;;;;;49.00;38.00;;;;;6.42;57.05;102331.94;5052498;28;45872;-68
2023/03/04 10:28:02;;;;;;;;;43.00;38.33;;;;;6.35;56.50;102319.97;5049806;28;45462;-70
2023/03/04 10:30:47;;;;;;;;;40.67;37.00;;;;;6.45;56.92;102320.38;5055910;28;45567;-71
2023/03/04 10:33:16;;;;;;;;;48.33;38.33;;;;;5.92;56.42;102213.03;5053502;28;45451;-77
2023/03/04 10:35:47;;;;;;;;;50.67;40.33;;;;;5.52;55.87;102120.03;5055242;28;45432;-71
2023/03/04 10:38:14;;;;;;;;;43.67;36.33;;;;;6.50;55.60;102276.91;5040793;28;47263;-72
2023/03/04 10:40:40;;;;;;;;;40.33;34.00;;;;;6.49;55.64;102279.63;5057208;28;45487;-71
2023/03/04 10:43:14;;;;;;;;;35.67;26.67;;;;;6.36;56.20;102232.72;5052992;28;45576;-71
2023/03/04 10:45:39;;;;;;;;;45.33;34.67;;;;;5.26;55.48;102042.25;5047526;28;45608;-69
2023/03/04 10:48:06;;;;;;;;;43.67;36.33;;;;;6.07;55.46;102215.75;5053828;28;45524;-71
2023/03/04 10:50:31;;;;;;;;;45.00;36.67;;;;;6.37;56.21;102239.69;5055039;28;45535;-77
2023/03/04 10:52:57;;;;;;;;;46.33;38.33;;;;;6.69;55.93;102297.94;5051292;28;45631;-72
2023/03/04 10:55:27;;;;;;;;;47.33;35.33;;;;;6.69;55.76;102276.78;5055341;28;45352;-72
2023/03/04 10:58:02;;;;;;;;;26.33;26.33;;;;;6.83;55.49;102287.50;5057277;28;45238;-71
2023/03/04 11:00:30;;;;;;;;;45.33;37.67;;;;;6.95;55.08;102289.47;5047216;28;46589;-71
2023/03/04 11:03:18;;;;;;;;;46.33;36.67;;;;;6.30;55.64;102190.78;5047448;28;45497;-73
2023/03/04 11:05:44;;;;;;;;;41.33;35.33;;;;;7.06;55.19;102302.13;5058146;28;45556;-71
2023/03/04 11:08:18;;;;;;;;;49.67;39.33;;;;;7.00;55.20;102305.06;5049756;28;45500;-71
2023/03/04 11:10:44;;;;;;;;;45.33;36.00;;;;;6.96;55.69;102290.31;5050188;28;45882;-72
2023/03/04 11:13:09;;;;;;;;;44.33;35.67;;;;;6.84;55.23;102291.00;5054846;28;45540;-73
2023/03/04 11:16:01;;;;;;;;;36.00;28.00;;;;;6.97;55.76;102276.16;5056476;28;45173;-73
2023/03/04 11:18:49;;;;;;;;;39.33;35.33;;;;;6.96;55.32;102263.88;5057579;28;45899;-72